createdAt,value
2022-12-19T00:01:26.794Z,101476.28
2022-12-19T00:03:58.862Z,101478.22
2022-12-19T00:06:26.973Z,101472.97
2022-12-19T00:08:54.552Z,101469.09
2022-12-19T00:11:23.235Z,101458.66
2022-12-19T00:13:49.888Z,101455.06
2022-12-19T00:16:19.880Z,101449.53
2022-12-19T00:18:47.728Z,101454.25
2022-12-19T00:21:17.828Z,101436.53
2022-12-19T00:23:44.819Z,101443.41
2022-12-19T00:26:17.282Z,101445.34
2022-12-19T00:28:46.562Z,101437.88
2022-12-19T00:31:14.155Z,101439.25
2022-12-19T00:33:43.482Z,101421.84
2022-12-19T00:36:12.891Z,101423.50
2022-12-19T00:38:39.889Z,101422.38
2022-12-19T00:41:09.002Z,101414.06
2022-12-19T00:43:35.483Z,101412.94
2022-12-19T00:46:09.298Z,101410.19
2022-12-19T00:48:36.932Z,101412.06
2022-12-19T00:51:10.536Z,101402.44
2022-12-19T00:53:37.309Z,101417.34
2022-12-19T00:56:11.671Z,101410.16
2022-12-19T00:58:42.101Z,101406.81
2022-12-19T01:01:17.868Z,101404.88
2022-12-19T01:04:04.530Z,101400.69
2022-12-19T01:06:31.195Z,101392.94
2022-12-19T01:08:58.197Z,101390.16
2022-12-19T01:11:43.730Z,101385.19
2022-12-19T01:14:16.101Z,101385.69
2022-12-19T01:16:45.622Z,101397.25
2022-12-19T01:19:12.256Z,101388.97
2022-12-19T01:21:38.819Z,101389.81
2022-12-19T01:24:05.834Z,101391.97
2022-12-19T01:26:32.368Z,101394.41
2022-12-19T01:28:58.733Z,101396.91
2022-12-19T01:31:25.338Z,101387.50
2022-12-19T01:33:51.694Z,101380.56
2022-12-19T01:36:18.141Z,101384.97
2022-12-19T01:38:44.524Z,101364.78
2022-12-19T01:41:11.261Z,101377.19
2022-12-19T01:44:05.704Z,101364.19
2022-12-19T01:46:42.966Z,101358.88
2022-12-19T01:49:38.740Z,101355.00
2022-12-19T01:52:08.221Z,101359.63
2022-12-19T01:54:40.189Z,101353.78
2022-12-19T01:57:10.743Z,101352.38
2022-12-19T01:59:51.352Z,101346.53
2022-12-19T02:02:28.631Z,101357.00
2022-12-19T02:04:55.149Z,101346.16
2022-12-19T02:07:23.341Z,101345.56
2022-12-19T02:09:56.917Z,101343.00
2022-12-19T02:12:26.779Z,101338.31
2022-12-19T02:14:54.917Z,101332.19
2022-12-19T02:17:39.611Z,101331.88
2022-12-19T02:20:48.783Z,101300.63
2022-12-19T02:24:04.018Z,101300.03
2022-12-19T02:26:48.325Z,101293.59
2022-12-19T02:29:45.649Z,101305.47
2022-12-19T02:32:27.514Z,101282.22
2022-12-19T02:35:02.903Z,101284.38
2022-12-19T02:37:34.124Z,101277.41
2022-12-19T02:40:16.693Z,101272.69
2022-12-19T02:42:49.273Z,101259.59
2022-12-19T02:45:28.590Z,101251.81
2022-12-19T02:47:57.031Z,101263.91
2022-12-19T02:50:23.495Z,101249.16
2022-12-19T02:52:50.115Z,101255.22
2022-12-19T02:55:23.699Z,101235.53
2022-12-19T02:58:04.982Z,101241.28
2022-12-19T03:00:37.015Z,101244.25
2022-12-19T03:03:27.802Z,101247.84
2022-12-19T03:06:23.707Z,101235.03
2022-12-19T03:08:50.067Z,101233.78
2022-12-19T03:11:16.908Z,101222.41
2022-12-19T03:13:49.838Z,101225.16
2022-12-19T03:16:16.361Z,101215.94
2022-12-19T03:18:43.072Z,101216.16
2022-12-19T03:21:19.431Z,101217.50
2022-12-19T03:23:46.662Z,101213.28
2022-12-19T03:26:18.389Z,101203.53
2022-12-19T03:28:59.338Z,101206.81
2022-12-19T03:31:29.318Z,101199.72
2022-12-19T03:34:03.015Z,101188.34
2022-12-19T03:36:36.503Z,101197.34
2022-12-19T03:39:06.152Z,101189.25
2022-12-19T03:42:02.729Z,101178.84
2022-12-19T03:44:33.531Z,101182.66
2022-12-19T03:47:21.510Z,101170.94
2022-12-19T03:49:48.573Z,101168.22
2022-12-19T03:52:28.417Z,101167.09
2022-12-19T03:55:18.374Z,101162.56
2022-12-19T03:57:55.993Z,101166.34
2022-12-19T04:00:25.072Z,101176.19
2022-12-19T04:02:54.033Z,101173.63
2022-12-19T04:05:26.253Z,101178.03
2022-12-19T04:07:56.435Z,101167.63
2022-12-19T04:10:25.805Z,101177.63
2022-12-19T04:13:03.027Z,101167.00
2022-12-19T04:15:55.733Z,101170.31
2022-12-19T04:18:23.379Z,101167.09
2022-12-19T04:21:01.498Z,101161.22
2022-12-19T04:23:35.165Z,101153.09
2022-12-19T04:26:04.265Z,101141.38
2022-12-19T04:28:38.269Z,101146.28
2022-12-19T04:31:06.685Z,101142.88
2022-12-19T04:33:33.086Z,101134.75
2022-12-19T04:36:00.187Z,101136.72
2022-12-19T04:38:26.985Z,101128.91
2022-12-19T04:40:53.330Z,101118.31
2022-12-19T04:43:19.643Z,101110.19
2022-12-19T04:45:46.220Z,101111.47
2022-12-19T04:48:13.055Z,101109.22
2022-12-19T04:50:39.421Z,101105.78
2022-12-19T04:53:06.342Z,101108.75
2022-12-19T04:55:32.841Z,101102.91
2022-12-19T04:57:59.180Z,101109.41
2022-12-19T05:00:25.518Z,101101.59
2022-12-19T05:02:52.133Z,101100.13
2022-12-19T05:05:18.960Z,101099.50
2022-12-19T05:07:46.957Z,101094.75
2022-12-19T05:10:13.682Z,101098.53
2022-12-19T05:12:40.109Z,101101.31
2022-12-19T05:15:07.099Z,101090.69
2022-12-19T05:17:33.686Z,101095.13
2022-12-19T05:20:00.002Z,101090.88
2022-12-19T05:22:26.348Z,101085.81
2022-12-19T05:24:52.736Z,101089.44
2022-12-19T05:27:19.399Z,101089.56
2022-12-19T05:29:45.805Z,101077.34
2022-12-19T05:32:12.182Z,101080.63
2022-12-19T05:34:38.574Z,101072.28
2022-12-19T05:37:05.649Z,101081.44
2022-12-19T05:39:32.035Z,101079.81
2022-12-19T05:41:58.561Z,101083.38
2022-12-19T05:44:26.270Z,101091.72
2022-12-19T05:46:54.897Z,101084.19
2022-12-19T05:49:21.302Z,101083.38
2022-12-19T05:51:48.338Z,101096.94
2022-12-19T05:54:14.973Z,101089.44
2022-12-19T05:56:41.479Z,101081.09
2022-12-19T05:59:07.887Z,101075.25
2022-12-19T06:01:34.808Z,101075.25
2022-12-19T06:04:01.345Z,101077.69
2022-12-19T06:06:27.953Z,101079.66
2022-12-19T06:08:56.375Z,101079.31
2022-12-19T06:11:23.649Z,101076.22
2022-12-19T06:13:50.687Z,101088.16
2022-12-19T06:16:19.803Z,101092.56
2022-12-19T06:18:48.350Z,101086.66
2022-12-19T06:21:16.195Z,101098.28
2022-12-19T06:23:43.843Z,101097.63
2022-12-19T06:26:17.142Z,101098.28
2022-12-19T06:28:46.184Z,101084.41
2022-12-19T06:31:13.619Z,101081.94
2022-12-19T06:33:40.411Z,101090.25
2022-12-19T06:36:14.606Z,101079.81
2022-12-19T06:38:40.987Z,101078.69
2022-12-19T06:41:27.492Z,101076.72
2022-12-19T06:43:54.203Z,101088.63
2022-12-19T06:46:21.123Z,101073.94
2022-12-19T06:48:47.759Z,101088.31
2022-12-19T06:51:14.173Z,101085.53
2022-12-19T06:53:40.657Z,101083.56
2022-12-19T06:56:08.278Z,101083.25
2022-12-19T06:58:35.299Z,101089.63
2022-12-19T07:01:01.812Z,101091.59
2022-12-19T07:03:39.559Z,101083.91
2022-12-19T07:06:06.725Z,101084.41
2022-12-19T07:08:33.359Z,101079.16
2022-12-19T07:10:59.861Z,101081.13
2022-12-19T07:13:27.577Z,101071.63
2022-12-19T07:15:59.051Z,101079.16
2022-12-19T07:18:25.768Z,101066.44
2022-12-19T07:20:52.271Z,101066.91
2022-12-19T07:23:21.064Z,101069.69
2022-12-19T07:25:47.580Z,101066.09
2022-12-19T07:28:15.197Z,101060.25
2022-12-19T07:30:41.959Z,101068.22
2022-12-19T07:33:11.070Z,101085.38
2022-12-19T07:35:38.285Z,101086.69
2022-12-19T07:38:06.180Z,101083.56
2022-12-19T07:40:34.796Z,101086.06
2022-12-19T07:43:01.935Z,101087.00
2022-12-19T07:45:29.644Z,101088.19
2022-12-19T07:47:56.405Z,101082.28
2022-12-19T07:50:22.818Z,101083.28
2022-12-19T07:52:49.278Z,101083.78
2022-12-19T07:55:15.682Z,101076.75
2022-12-19T07:57:42.559Z,101078.06
2022-12-19T08:00:09.549Z,101092.09
2022-12-19T08:02:36.336Z,101090.63
2022-12-19T08:05:03.769Z,101090.00
2022-12-19T08:07:30.290Z,101081.31
2022-12-19T08:09:56.682Z,101082.34
2022-12-19T08:12:23.765Z,101085.59
2022-12-19T08:14:55.524Z,101085.75
2022-12-19T08:17:23.920Z,101083.16
2022-12-19T08:19:50.343Z,101081.31
2022-12-19T08:22:17.055Z,101081.84
2022-12-19T08:24:43.604Z,101084.78
2022-12-19T08:27:09.975Z,101081.66
2022-12-19T08:29:36.293Z,101085.41
2022-12-19T08:32:02.695Z,101080.34
2022-12-19T08:34:29.313Z,101081.31
2022-12-19T08:36:55.671Z,101077.88
2022-12-19T08:39:22.130Z,101092.75
2022-12-19T08:41:48.513Z,101084.91
2022-12-19T08:44:15.365Z,101092.25
2022-12-19T08:46:48.071Z,101087.16
2022-12-19T08:49:16.581Z,101081.75
2022-12-19T08:51:42.959Z,101084.72
2022-12-19T08:54:11.753Z,101086.00
2022-12-19T08:56:45.997Z,101089.75
2022-12-19T08:59:18.489Z,101084.69
2022-12-19T09:01:52.493Z,101085.97
2022-12-19T09:04:52.525Z,101089.72
2022-12-19T09:07:06.291Z,101093.78
2022-12-19T09:09:33.898Z,101092.69
2022-12-19T09:12:00.305Z,101086.44
2022-12-19T09:14:26.823Z,101092.16
2022-12-19T09:16:53.405Z,101100.66
2022-12-19T09:19:19.802Z,101103.59
2022-12-19T09:21:46.563Z,101091.78
2022-12-19T09:24:12.963Z,101088.34
2022-12-19T09:26:40.173Z,101088.50
2022-12-19T09:29:20.620Z,101096.16
2022-12-19T09:31:51.465Z,101096.31
2022-12-19T09:34:33.013Z,101090.09
2022-12-19T09:37:06.409Z,101092.19
2022-12-19T09:39:34.014Z,101086.78
2022-12-19T09:42:17.625Z,101083.19
2022-12-19T09:44:56.471Z,101076.91
2022-12-19T09:47:26.483Z,101073.97
2022-12-19T09:49:54.528Z,101079.66
2022-12-19T09:52:35.845Z,101088.81
2022-12-19T09:55:11.357Z,101088.63
2022-12-19T09:57:49.489Z,101084.84
2022-12-19T10:00:19.493Z,101089.44
2022-12-19T10:03:14.142Z,101103.84
2022-12-19T10:07:09.300Z,101108.88
2022-12-19T10:09:06.598Z,101106.72
2022-12-19T10:12:38.109Z,101113.25
2022-12-19T10:15:09.463Z,101106.66
2022-12-19T10:17:47.600Z,101100.09
2022-12-19T10:20:23.099Z,101098.25
2022-12-19T10:23:26.053Z,101111.84
2022-12-19T10:26:14.439Z,101105.91
2022-12-19T10:28:54.608Z,101102.47
2022-12-19T10:31:48.136Z,101099.81
2022-12-19T10:34:30.401Z,101099.63
2022-12-19T10:37:27.322Z,101088.94
2022-12-19T10:39:58.935Z,101097.44
2022-12-19T10:42:33.861Z,101099.22
2022-12-19T10:45:04.815Z,101095.75
2022-12-19T10:47:31.333Z,101098.31
2022-12-19T10:49:59.538Z,101082.88
2022-12-19T10:52:55.221Z,101080.09
2022-12-19T10:55:38.824Z,101077.91
2022-12-19T10:58:24.128Z,101071.19
2022-12-19T11:00:59.695Z,101076.88
2022-12-19T11:03:26.424Z,101073.41
2022-12-19T11:05:57.673Z,101075.38
2022-12-19T11:08:36.529Z,101075.38
2022-12-19T11:12:35.580Z,101079.44
2022-12-19T11:19:00.324Z,101085.03
2022-12-19T11:23:51.313Z,101082.72
2022-12-19T11:29:17.027Z,101071.91
2022-12-19T11:30:05.572Z,101080.75
2022-12-19T11:30:34.379Z,101081.56
2022-12-19T11:30:36.674Z,101065.66
2022-12-19T11:32:32.253Z,101075.41
2022-12-19T11:34:18.320Z,101074.59
2022-12-19T11:36:50.496Z,101076.22
2022-12-19T11:39:32.455Z,101075.41
2022-12-19T11:42:46.669Z,101082.66
2022-12-19T11:45:21.124Z,101075.56
2022-12-19T11:48:13.021Z,101075.09
2022-12-19T11:50:56.608Z,101078.34
2022-12-19T11:53:30.414Z,101072.41
2022-12-19T11:56:15.885Z,101084.88
2022-12-19T11:58:49.409Z,101075.34
2022-12-19T12:01:47.302Z,101076.97
2022-12-19T12:04:54.897Z,101078.63
2022-12-19T12:07:56.642Z,101067.25
2022-12-19T12:17:30.652Z,101074.81
2022-12-19T12:21:57.673Z,101064.78
2022-12-19T12:30:26.126Z,101066.88
2022-12-19T12:31:10.130Z,101063.97
2022-12-19T12:31:15.837Z,101059.69
2022-12-19T12:31:38.596Z,101051.78
2022-12-19T12:31:57.248Z,101052.94
2022-12-19T12:35:31.525Z,101050.59
2022-12-19T12:38:35.125Z,101067.97
2022-12-19T12:41:10.124Z,101065.50
2022-12-19T12:44:00.676Z,101063.53
2022-12-19T12:46:34.259Z,101065.97
2022-12-19T12:49:23.337Z,101041.69
2022-12-19T12:51:50.225Z,101048.53
2022-12-19T12:54:17.623Z,101046.22
2022-12-19T12:56:46.589Z,101026.72
2022-12-19T12:59:26.770Z,101019.03
2022-12-19T13:02:07.219Z,101024.72
2022-12-19T13:04:42.027Z,101019.63
2022-12-19T13:07:24.449Z,101019.63
2022-12-19T13:10:06.547Z,101014.53
2022-12-19T13:12:51.496Z,101009.91
2022-12-19T13:15:29.728Z,101019.06
2022-12-19T13:17:56.205Z,101014.06
2022-12-19T13:20:27.112Z,101027.22
2022-12-19T13:22:58.211Z,101016.50
2022-12-19T13:25:27.445Z,101012.91
2022-12-19T13:28:00.893Z,101023.72
2022-12-19T13:30:52.243Z,101025.81
2022-12-19T13:33:21.417Z,101022.34
2022-12-19T13:39:42.374Z,101016.41
2022-12-19T13:39:58.317Z,101022.78
2022-12-19T13:42:05.044Z,100999.78
2022-12-19T13:44:35.886Z,101001.03
2022-12-19T13:47:02.521Z,101002.22
2022-12-19T13:49:34.619Z,101005.81
2022-12-19T13:52:03.098Z,101005.47
2022-12-19T13:54:34.553Z,101009.06
2022-12-19T13:57:08.151Z,101011.03
2022-12-19T13:59:38.502Z,101003.84
2022-12-19T14:02:18.163Z,101002.56
2022-12-19T14:04:45.553Z,101001.03
2022-12-19T14:07:40.889Z,100996.50
2022-12-19T14:11:31.973Z,100985.34
2022-12-19T14:13:56.536Z,100991.41
2022-12-19T14:16:18.359Z,100984.66
2022-12-19T14:18:49.650Z,100977.78
2022-12-19T14:22:05.277Z,100984.88
2022-12-19T14:24:10.451Z,100977.78
2022-12-19T14:28:23.522Z,100976.16
2022-12-19T14:30:26.806Z,100970.94
2022-12-19T14:33:39.530Z,100977.31
2022-12-19T14:36:06.294Z,100971.75
2022-12-19T14:39:27.666Z,100970.13
2022-12-19T14:41:08.000Z,100972.91
2022-12-19T14:43:59.367Z,100970.81
2022-12-19T14:53:34.399Z,100973.97
2022-12-19T14:54:01.595Z,100971.41
2022-12-19T14:54:48.353Z,100978.47
2022-12-19T14:56:08.550Z,100970.47
2022-12-19T14:58:55.463Z,100983.25
2022-12-19T15:01:31.113Z,100980.25
2022-12-19T15:04:51.683Z,100977.78
2022-12-19T15:07:07.280Z,100972.19
2022-12-19T15:11:04.818Z,100978.78
2022-12-19T15:14:46.491Z,100982.56
2022-12-19T15:16:03.264Z,100972.41
2022-12-19T15:18:32.865Z,100977.97
2022-12-19T15:21:05.685Z,100968.34
2022-12-19T15:23:32.359Z,100981.13
2022-12-19T15:26:06.134Z,100963.59
2022-12-19T15:28:43.272Z,100957.19
2022-12-19T15:31:25.133Z,100947.66
2022-12-19T15:34:33.819Z,100949.75
2022-12-19T15:36:38.912Z,100951.72
2022-12-19T15:39:05.384Z,100950.91
2022-12-19T15:41:32.036Z,100938.94
2022-12-19T15:44:04.112Z,100938.13
2022-12-19T15:46:32.243Z,100938.59
2022-12-19T15:48:58.706Z,100932.66
2022-12-19T15:51:25.096Z,100925.94
2022-12-19T15:53:51.492Z,100923.97
2022-12-19T15:56:29.923Z,100910.34
2022-12-19T15:58:57.165Z,100903.75
2022-12-19T16:01:23.953Z,100899.53
2022-12-19T16:03:51.290Z,100901.16
2022-12-19T16:06:19.318Z,100896.41
2022-12-19T16:08:45.715Z,100890.13
2022-12-19T16:11:23.378Z,100888.97
2022-12-19T16:13:56.756Z,100885.47
2022-12-19T16:16:23.779Z,100882.88
2022-12-19T16:18:50.345Z,100867.44
2022-12-19T16:21:31.644Z,100869.97
2022-12-19T16:24:00.905Z,100875.31
2022-12-19T16:26:33.416Z,100883.31
2022-12-19T16:29:00.605Z,100889.03
2022-12-19T16:31:28.010Z,100882.25
2022-12-19T16:33:55.139Z,100881.94
2022-12-19T16:36:21.773Z,100889.47
2022-12-19T16:38:48.346Z,100891.13
2022-12-19T16:41:19.246Z,100894.25
2022-12-19T16:43:46.532Z,100895.88
2022-12-19T16:46:34.003Z,100887.03
2022-12-19T16:49:03.120Z,100902.38
2022-12-19T16:51:29.798Z,100910.41
2022-12-19T16:53:58.829Z,100922.84
2022-12-19T16:56:35.747Z,100932.03
2022-12-19T16:59:05.507Z,100940.97
2022-12-19T17:01:32.240Z,100940.28
2022-12-19T17:03:58.961Z,100949.13
2022-12-19T17:06:26.518Z,100952.38
2022-12-19T17:08:52.825Z,100939.22
2022-12-19T17:11:23.349Z,100945.16
2022-12-19T17:13:55.075Z,100935.16
2022-12-19T17:16:21.762Z,100929.56
2022-12-19T17:18:48.675Z,100921.53
2022-12-19T17:21:21.539Z,100939.00
2022-12-19T17:23:49.630Z,100923.06
2022-12-19T17:26:18.119Z,100924.22
2022-12-19T17:28:48.220Z,100923.41
2022-12-19T17:31:25.623Z,100915.63
2022-12-19T17:33:54.833Z,100923.66
2022-12-19T17:36:25.566Z,100924.47
2022-12-19T17:38:54.224Z,100930.88
2022-12-19T17:41:20.837Z,100927.63
2022-12-19T17:43:47.220Z,100927.63
2022-12-19T17:46:21.745Z,100944.38
2022-12-19T17:48:51.097Z,100949.59
2022-12-19T17:51:20.050Z,100954.38
2022-12-19T17:53:47.889Z,100959.94
2022-12-19T17:56:15.992Z,100961.59
2022-12-19T17:58:42.861Z,100960.75
2022-12-19T18:01:27.627Z,100961.47
2022-12-19T18:03:56.000Z,100971.59
2022-12-19T18:06:22.327Z,100966.81
2022-12-19T18:08:48.687Z,100966.00
2022-12-19T18:11:24.493Z,100971.94
2022-12-19T18:13:52.948Z,100974.03
2022-12-19T18:16:28.093Z,100969.13
2022-12-19T18:18:54.648Z,100964.84
2022-12-19T18:21:24.582Z,100957.28
2022-12-19T18:23:55.147Z,100955.66
2022-12-19T18:26:21.856Z,100959.25
2022-12-19T18:28:48.787Z,100971.59
2022-12-19T18:31:22.329Z,100964.03
2022-12-19T18:33:50.126Z,100954.84
2022-12-19T18:36:25.726Z,100968.00
2022-12-19T18:38:52.973Z,100962.84
2022-12-19T18:41:20.659Z,100961.25
2022-12-19T18:43:48.770Z,100962.03
2022-12-19T18:46:19.152Z,100952.88
2022-12-19T18:48:46.099Z,100943.31
2022-12-19T18:51:21.303Z,100962.84
2022-12-19T18:53:50.324Z,100960.88
2022-12-19T18:56:17.254Z,100965.28
2022-12-19T18:58:49.583Z,100959.25
2022-12-19T19:01:24.130Z,100964.84
2022-12-19T19:03:55.583Z,100952.06
2022-12-19T19:06:25.656Z,100961.25
2022-12-19T19:08:52.481Z,100971.59
2022-12-19T19:11:20.738Z,100967.50
2022-12-19T19:13:47.225Z,100960.31
2022-12-19T19:16:18.115Z,100977.75
2022-12-19T19:18:48.732Z,100972.53
2022-12-19T19:21:16.212Z,100971.72
2022-12-19T19:23:47.518Z,100960.91
2022-12-19T19:26:14.354Z,100967.31
2022-12-19T19:28:43.081Z,100965.69
2022-12-19T19:31:16.201Z,100958.13
2022-12-19T19:33:48.954Z,100955.34
2022-12-19T19:36:20.303Z,100949.38
2022-12-19T19:38:51.782Z,100949.84
2022-12-19T19:41:18.423Z,100959.03
2022-12-19T19:43:45.977Z,100963.91
2022-12-19T19:46:12.968Z,100961.59
2022-12-19T19:48:42.532Z,100970.41
2022-12-19T19:51:09.512Z,100961.69
2022-12-19T19:53:37.869Z,100967.28
2022-12-19T19:56:04.985Z,100978.91
2022-12-19T19:58:32.108Z,100969.72
2022-12-19T20:00:58.746Z,100975.31
2022-12-19T20:03:25.407Z,100977.63
2022-12-19T20:05:59.822Z,100970.78
2022-12-19T20:08:26.343Z,100968.81
2022-12-19T20:10:57.913Z,100964.38
2022-12-19T20:13:24.836Z,100978.00
2022-12-19T20:15:52.080Z,100968.44
2022-12-19T20:18:18.632Z,100970.88
2022-12-19T20:20:49.825Z,100976.00
2022-12-19T20:23:16.759Z,100980.41
2022-12-19T20:25:45.518Z,100974.03
2022-12-19T20:28:11.840Z,100979.59
2022-12-19T20:30:38.228Z,100974.84
2022-12-19T20:33:04.553Z,100983.69
2022-12-19T20:35:31.373Z,100981.72
2022-12-19T20:37:57.883Z,100985.44
2022-12-19T20:40:24.233Z,100985.50
2022-12-19T20:42:50.608Z,100994.00
2022-12-19T20:45:17.200Z,100991.78
2022-12-19T20:47:43.664Z,100979.56
2022-12-19T20:50:12.686Z,100972.91
2022-12-19T20:52:39.228Z,100987.31
2022-12-19T20:55:06.214Z,100983.84
2022-12-19T20:57:32.588Z,100980.66
2022-12-19T20:59:59.091Z,100979.53
2022-12-19T21:02:25.756Z,100977.06
2022-12-19T21:04:52.543Z,100991.03
2022-12-19T21:07:19.033Z,100967.44
2022-12-19T21:09:45.677Z,100983.72
2022-12-19T21:12:12.676Z,100981.28
2022-12-19T21:14:39.323Z,100984.44
2022-12-19T21:17:05.721Z,100979.56
2022-12-19T21:19:32.280Z,100985.50
2022-12-19T21:21:58.712Z,100979.09
2022-12-19T21:24:25.131Z,100988.63
2022-12-19T21:26:56.112Z,100973.53
2022-12-19T21:29:24.545Z,100976.75
2022-12-19T21:31:51.436Z,100967.22
2022-12-19T21:34:17.797Z,100973.59
2022-12-19T21:36:44.477Z,100971.28
2022-12-19T21:39:11.129Z,100962.19
2022-12-19T21:41:37.639Z,100969.41
2022-12-19T21:44:04.173Z,100965.09
2022-12-19T21:46:35.625Z,100965.19
2022-12-19T21:49:05.391Z,100970.09
2022-12-19T21:51:32.311Z,100964.56
2022-12-19T21:54:01.127Z,100961.88
2022-12-19T21:56:41.351Z,100955.59
2022-12-19T21:59:12.709Z,100956.19
2022-12-19T22:01:41.278Z,100965.13
2022-12-19T22:04:12.417Z,100957.53
2022-12-19T22:06:39.423Z,100956.09
2022-12-19T22:09:08.694Z,100948.19
2022-12-19T22:11:36.476Z,100949.13
2022-12-19T22:14:07.504Z,100950.84
2022-12-19T22:16:34.862Z,100945.31
2022-12-19T22:19:02.025Z,100946.59
2022-12-19T22:21:29.982Z,100950.66
2022-12-19T22:24:00.600Z,100935.97
2022-12-19T22:26:29.219Z,100948.41
2022-12-19T22:28:56.586Z,100940.91
2022-12-19T22:31:31.303Z,100938.59
2022-12-19T22:34:01.246Z,100945.44
2022-12-19T22:36:30.258Z,100941.00
2022-12-19T22:38:58.360Z,100937.84
2022-12-19T22:41:25.328Z,100944.28
2022-12-19T22:43:52.155Z,100947.88
2022-12-19T22:46:26.313Z,100934.25
2022-12-19T22:48:56.902Z,100929.47
2022-12-19T22:51:24.058Z,100929.47
2022-12-19T22:53:53.641Z,100934.72
2022-12-19T22:56:22.926Z,100936.59
2022-12-19T22:58:52.901Z,100939.75
2022-12-19T23:01:26.833Z,100940.47
2022-12-19T23:03:55.764Z,100950.84
2022-12-19T23:06:24.195Z,100941.19
2022-12-19T23:08:51.193Z,100945.16
2022-12-19T23:11:21.638Z,100952.28
2022-12-19T23:13:49.383Z,100955.44
2022-12-19T23:16:16.859Z,100961.03
2022-12-19T23:18:43.443Z,100956.16
2022-12-19T23:21:21.315Z,100957.69
2022-12-19T23:23:49.646Z,100954.19
2022-12-19T23:26:21.933Z,100955.69
2022-12-19T23:29:02.875Z,100948.91
2022-12-19T23:31:31.108Z,100947.41
2022-12-19T23:33:58.369Z,100953.44
2022-12-19T23:37:00.549Z,100941.91
2022-12-19T23:39:12.579Z,100937.94
2022-12-19T23:41:39.083Z,100938.38
2022-12-19T23:44:05.821Z,100930.00
2022-12-19T23:46:32.283Z,100934.88
2022-12-19T23:48:58.848Z,100933.38
2022-12-19T23:51:28.163Z,100931.81
2022-12-19T23:53:55.779Z,100923.53
2022-12-19T23:56:25.667Z,100911.97
2022-12-19T23:58:52.674Z,100904.47
